Time;durP1;ratioP1;P1;durP2;ratioP2;P2;SDS_P1;SDS_P2;PMS_P1;PMS_P2;Temp;Humidity;BMP_temperature;BMP_pressure;BME280_temperature;BME280_humidity;BME280_pressure;Samples;Min_cycle;Max_cycle;Signal;HPM_P1;HPM_P2
2021/08/10 00:01:56;;;;;;;8.33;6.10;;;14.70;99.90;;;;;;5032244;28;20535;-68
2021/08/10 00:04:24;;;;;;;7.63;6.30;;;14.60;99.90;;;;;;5032936;28;20452;-69
2021/08/10 00:06:51;;;;;;;6.00;4.47;;;14.70;99.90;;;;;;5033107;28;20459;-69
2021/08/10 00:09:18;;;;;;;6.73;5.03;;;14.80;99.90;;;;;;5032272;28;20469;-69
2021/08/10 00:11:45;;;;;;;7.20;5.17;;;14.80;99.90;;;;;;5032884;28;20537;-68
2021/08/10 00:14:12;;;;;;;7.97;5.80;;;14.80;99.90;;;;;;5032840;28;20532;-69
2021/08/10 00:16:39;;;;;;;7.60;5.10;;;14.80;99.90;;;;;;5032931;28;20523;-68
2021/08/10 00:19:06;;;;;;;8.87;5.53;;;14.80;99.90;;;;;;5032103;28;20456;-70
2021/08/10 00:21:34;;;;;;;10.80;6.03;;;14.90;99.90;;;;;;5032470;28;20444;-69
2021/08/10 00:24:01;;;;;;;8.93;5.57;;;14.90;99.90;;;;;;5032792;28;20467;-70
2021/08/10 00:26:29;;;;;;;6.90;5.07;;;14.90;99.90;;;;;;5032271;28;20476;-69
2021/08/10 00:28:55;;;;;;;9.33;6.33;;;14.90;99.90;;;;;;5032261;28;20575;-69
2021/08/10 00:31:23;;;;;;;8.17;5.63;;;15.00;99.90;;;;;;5032719;28;20955;-70
2021/08/10 00:33:50;;;;;;;6.40;4.87;;;15.00;99.90;;;;;;5032971;28;20539;-70
2021/08/10 00:36:17;;;;;;;9.27;5.53;;;14.90;99.90;;;;;;5032390;28;20445;-68
2021/08/10 00:38:46;;;;;;;7.50;5.73;;;14.90;99.90;;;;;;5032640;28;20441;-69
2021/08/10 00:41:13;;;;;;;8.87;5.70;;;14.90;99.90;;;;;;5030307;28;20465;-68
2021/08/10 00:43:41;;;;;;;9.60;5.60;;;14.80;99.90;;;;;;5032638;28;20816;-68
2021/08/10 00:46:09;;;;;;;7.80;5.57;;;14.70;99.90;;;;;;5032257;28;20455;-69
2021/08/10 00:48:37;;;;;;;9.50;5.50;;;14.60;99.90;;;;;;5032252;28;20853;-68
2021/08/10 00:51:05;;;;;;;7.03;5.87;;;14.60;99.90;;;;;;5031225;28;20869;-68
2021/08/10 00:53:33;;;;;;;7.47;5.40;;;14.60;99.90;;;;;;5032373;28;20444;-69
2021/08/10 00:56:02;;;;;;;6.43;5.70;;;14.50;99.90;;;;;;5031856;28;20791;-69
2021/08/10 00:58:30;;;;;;;8.17;6.40;;;14.50;99.90;;;;;;5032268;28;20468;-67
2021/08/10 01:00:57;;;;;;;8.53;5.60;;;14.50;99.90;;;;;;5031164;28;20469;-69
2021/08/10 01:03:24;;;;;;;8.23;5.70;;;14.50;99.90;;;;;;5031641;28;20939;-69
2021/08/10 01:05:52;;;;;;;8.77;5.70;;;14.40;99.90;;;;;;5031649;28;20808;-69
2021/08/10 01:08:30;;;;;;;7.00;5.53;;;14.40;99.90;;;;;;5031776;28;21178;-69
2021/08/10 01:11:07;;;;;;;9.27;5.70;;;14.40;99.90;;;;;;5031190;28;20465;-69
2021/08/10 01:13:37;;;;;;;9.07;6.80;;;14.40;99.90;;;;;;5032121;28;20529;-69
2021/08/10 01:16:17;;;;;;;6.77;5.33;;;14.40;99.90;;;;;;5031288;28;20512;-68
2021/08/10 01:18:54;;;;;;;9.30;6.13;;;14.40;99.90;;;;;;5031673;28;20472;-69
2021/08/10 01:21:24;;;;;;;9.40;6.10;;;14.40;99.90;;;;;;5031301;28;20429;-68
2021/08/10 01:23:58;;;;;;;9.10;5.40;;;14.30;99.90;;;;;;5031564;28;20449;-68
2021/08/10 01:26:38;;;;;;;10.00;6.13;;;14.30;99.90;;;;;;5030995;28;20460;-68
2021/08/10 01:29:17;;;;;;;6.57;5.43;;;14.30;99.90;;;;;;5031037;28;20847;-70
2021/08/10 01:31:46;;;;;;;8.67;5.53;;;14.20;99.90;;;;;;5031877;28;20524;-69
2021/08/10 01:34:24;;;;;;;11.50;7.27;;;14.20;99.90;;;;;;5031376;28;20451;-69
2021/08/10 01:36:54;;;;;;;9.40;5.80;;;14.10;99.90;;;;;;5031891;28;20543;-68
2021/08/10 01:39:23;;;;;;;9.50;6.30;;;14.00;99.90;;;;;;5030824;28;20465;-69
2021/08/10 01:41:50;;;;;;;10.53;7.40;;;14.00;99.90;;;;;;5031402;28;20451;-69
2021/08/10 01:44:18;;;;;;;6.43;5.50;;;14.00;99.90;;;;;;5031068;28;20528;-68
2021/08/10 01:46:48;;;;;;;10.00;5.90;;;13.90;99.90;;;;;;5032434;28;20480;-68
2021/08/10 01:49:16;;;;;;;8.57;6.20;;;14.00;99.90;;;;;;5031497;28;20496;-70
2021/08/10 01:51:44;;;;;;;10.87;6.87;;;14.00;99.90;;;;;;5032015;28;20560;-69
2021/08/10 01:54:12;;;;;;;8.10;5.63;;;14.00;99.90;;;;;;5032294;28;21158;-69
2021/08/10 01:56:40;;;;;;;8.97;6.07;;;14.00;99.90;;;;;;5032020;28;20449;-69
2021/08/10 01:59:08;;;;;;;8.43;5.77;;;14.00;99.90;;;;;;5030254;28;20447;-68
2021/08/10 02:01:37;;;;;;;8.93;6.90;;;14.00;99.90;;;;;;5030955;28;20535;-69
2021/08/10 02:04:07;;;;;;;8.13;6.13;;;14.00;99.90;;;;;;5031374;28;20459;-69
2021/08/10 02:06:36;;;;;;;9.80;6.23;;;14.00;99.90;;;;;;5030481;28;20825;-69
2021/08/10 02:09:04;;;;;;;9.23;6.47;;;13.90;99.90;;;;;;5030007;28;20571;-69
2021/08/10 02:11:32;;;;;;;7.33;5.03;;;13.90;99.90;;;;;;5030589;28;20455;-69
2021/08/10 02:14:02;;;;;;;7.77;5.30;;;13.80;99.90;;;;;;5030415;28;21066;-69
2021/08/10 02:16:29;;;;;;;9.33;6.10;;;13.70;99.90;;;;;;5030362;28;20527;-69
2021/08/10 02:18:56;;;;;;;8.13;5.90;;;13.70;99.90;;;;;;5030154;28;21041;-68
2021/08/10 02:21:30;;;;;;;9.43;5.50;;;13.70;99.90;;;;;;5030431;28;20451;-69
2021/08/10 02:24:03;;;;;;;7.23;5.47;;;13.60;99.90;;;;;;5029635;28;20469;-69
2021/08/10 02:26:32;;;;;;;10.70;6.40;;;13.50;99.90;;;;;;5029966;28;20463;-69
2021/08/10 02:28:59;;;;;;;7.27;5.60;;;13.40;99.90;;;;;;5029621;28;20484;-69
2021/08/10 02:31:30;;;;;;;6.53;5.17;;;13.40;99.90;;;;;;5030067;28;20499;-69
2021/08/10 02:33:58;;;;;;;6.43;5.83;;;13.30;99.90;;;;;;5030297;28;20532;-69
2021/08/10 02:36:30;;;;;;;8.93;5.70;;;13.40;99.90;;;;;;5030036;28;20504;-69
2021/08/10 02:39:02;;;;;;;6.57;5.03;;;13.40;99.90;;;;;;5029739;28;20453;-69
2021/08/10 02:41:29;;;;;;;7.03;5.23;;;13.40;99.90;;;;;;5029792;28;20537;-69
2021/08/10 02:43:57;;;;;;;5.90;4.90;;;13.30;99.90;;;;;;5029817;28;20459;-67
2021/08/10 02:46:23;;;;;;;10.43;4.60;;;13.20;99.90;;;;;;5029606;28;20451;-68
2021/08/10 02:48:50;;;;;;;6.43;4.97;;;13.10;99.90;;;;;;5029962;28;20484;-69
2021/08/10 02:51:17;;;;;;;5.20;4.67;;;13.20;99.90;;;;;;5029167;28;20455;-68
2021/08/10 02:53:45;;;;;;;6.67;5.00;;;13.30;99.90;;;;;;5030067;28;20445;-69
2021/08/10 02:56:18;;;;;;;8.53;5.43;;;13.40;99.90;;;;;;5029669;28;20462;-69
2021/08/10 02:58:50;;;;;;;5.40;4.63;;;13.40;99.90;;;;;;5029800;28;20495;-69
2021/08/10 03:01:21;;;;;;;7.50;5.20;;;13.30;99.90;;;;;;5029324;28;20444;-69
2021/08/10 03:03:50;;;;;;;7.93;5.53;;;13.40;99.90;;;;;;5029690;28;20931;-68
2021/08/10 03:06:17;;;;;;;7.53;6.63;;;13.30;99.90;;;;;;5029548;28;20479;-70
2021/08/10 03:08:51;;;;;;;9.40;6.23;;;13.30;99.90;;;;;;5029680;28;20476;-69
2021/08/10 03:11:18;;;;;;;7.07;4.90;;;13.30;99.90;;;;;;5029272;28;20468;-69
2021/08/10 03:13:47;;;;;;;6.97;5.07;;;13.30;99.90;;;;;;5029783;28;20536;-70
2021/08/10 03:16:16;;;;;;;7.60;5.80;;;13.20;99.90;;;;;;5029307;28;20447;-70
2021/08/10 03:18:46;;;;;;;8.47;6.23;;;13.10;99.90;;;;;;5029583;28;20441;-68
2021/08/10 03:21:14;;;;;;;8.07;7.03;;;13.10;99.90;;;;;;5028568;28;20465;-70
2021/08/10 03:23:43;;;;;;;10.37;6.30;;;13.10;99.90;;;;;;5029508;28;20510;-70
2021/08/10 03:26:15;;;;;;;9.20;6.50;;;13.10;99.90;;;;;;5029058;28;20453;-69
2021/08/10 03:28:44;;;;;;;11.33;7.50;;;13.10;99.90;;;;;;5029971;28;20464;-69
2021/08/10 03:31:13;;;;;;;8.10;6.23;;;13.10;99.90;;;;;;5028814;28;20941;-69
2021/08/10 03:33:41;;;;;;;7.47;5.73;;;13.20;99.90;;;;;;5029315;28;20449;-70
2021/08/10 03:36:09;;;;;;;7.37;6.00;;;13.10;99.90;;;;;;5032714;28;20452;-69
2021/08/10 03:38:37;;;;;;;7.63;5.70;;;13.10;99.90;;;;;;5033592;28;20503;-69
2021/08/10 03:41:05;;;;;;;7.17;4.90;;;13.10;99.90;;;;;;5032923;28;20479;-69
2021/08/10 03:43:35;;;;;;;6.07;5.47;;;13.10;99.90;;;;;;5033548;28;20488;-70
2021/08/10 03:46:03;;;;;;;5.80;4.80;;;13.10;99.90;;;;;;5033058;28;20452;-68
2021/08/10 03:48:35;;;;;;;8.03;5.17;;;13.20;99.90;;;;;;5033496;28;20826;-69
2021/08/10 03:51:03;;;;;;;7.43;5.73;;;13.10;99.90;;;;;;5032882;28;20859;-69
2021/08/10 03:53:31;;;;;;;10.67;5.60;;;13.10;99.90;;;;;;5033295;28;20452;-68
2021/08/10 03:55:59;;;;;;;7.30;4.63;;;13.00;99.90;;;;;;5033071;28;20455;-69
2021/08/10 03:58:28;;;;;;;6.03;4.53;;;12.90;99.90;;;;;;5033226;28;20495;-69
2021/08/10 04:00:57;;;;;;;8.30;4.90;;;12.90;99.90;;;;;;5032233;28;20460;-69
2021/08/10 04:03:30;;;;;;;6.33;4.77;;;12.90;99.90;;;;;;5033445;28;20444;-70
2021/08/10 04:05:58;;;;;;;6.13;5.07;;;12.90;99.90;;;;;;5032814;28;20559;-69
2021/08/10 04:08:25;;;;;;;8.57;5.30;;;12.90;99.90;;;;;;5032953;28;20476;-70
2021/08/10 04:10:52;;;;;;;7.07;5.43;;;12.80;99.90;;;;;;5031911;28;20548;-70
2021/08/10 04:13:20;;;;;;;9.67;4.27;;;12.80;99.90;;;;;;5032935;28;20888;-70
2021/08/10 04:15:49;;;;;;;7.47;5.33;;;12.90;99.90;;;;;;5032470;28;21349;-70
2021/08/10 04:18:19;;;;;;;7.40;4.83;;;13.00;99.90;;;;;;5032879;28;20459;-69
2021/08/10 04:20:47;;;;;;;8.07;4.87;;;13.10;99.90;;;;;;5032059;28;20479;-69
2021/08/10 04:23:14;;;;;;;6.50;4.90;;;13.30;99.90;;;;;;5032681;28;20444;-69
2021/08/10 04:25:41;;;;;;;8.03;4.90;;;13.40;99.90;;;;;;5032237;28;20971;-69
2021/08/10 04:28:08;;;;;;;7.43;5.03;;;13.50;99.90;;;;;;5032837;28;20455;-69
2021/08/10 04:30:36;;;;;;;7.60;5.40;;;13.60;99.90;;;;;;5031441;28;20468;-68
2021/08/10 04:33:04;;;;;;;6.60;4.87;;;13.70;99.90;;;;;;5032481;28;20444;-69
2021/08/10 04:35:33;;;;;;;6.77;5.53;;;13.80;99.90;;;;;;5031878;28;20947;-69
2021/08/10 04:38:00;;;;;;;6.47;5.77;;;13.90;99.90;;;;;;5032356;28;20536;-69
2021/08/10 04:40:27;;;;;;;8.43;5.80;;;13.90;99.90;;;;;;5031684;28;21081;-69
2021/08/10 04:42:54;;;;;;;8.97;5.70;;;14.10;99.90;;;;;;5032350;28;21160;-69
2021/08/10 04:45:21;;;;;;;7.00;6.03;;;14.10;99.90;;;;;;5031829;28;20448;-70
2021/08/10 04:47:48;;;;;;;7.47;5.23;;;14.20;99.90;;;;;;5031527;28;20472;-69
2021/08/10 04:50:15;;;;;;;5.77;4.73;;;14.40;99.90;;;;;;5031571;28;20480;-68
2021/08/10 04:52:44;;;;;;;7.63;5.90;;;14.50;99.90;;;;;;5032040;28;20539;-68
2021/08/10 04:55:11;;;;;;;6.23;5.23;;;14.60;99.90;;;;;;5031606;28;20544;-69
2021/08/10 04:57:38;;;;;;;6.00;5.00;;;14.70;99.90;;;;;;5032400;28;20445;-67
2021/08/10 05:00:06;;;;;;;6.40;4.50;;;14.80;99.90;;;;;;5031010;28;20556;-68
2021/08/10 05:02:33;;;;;;;5.80;4.00;;;14.90;99.90;;;;;;5031895;28;20441;-68
2021/08/10 05:05:00;;;;;;;9.73;4.73;;;14.90;99.90;;;;;;5031363;28;20452;-69
2021/08/10 05:07:27;;;;;;;6.87;5.33;;;15.10;99.90;;;;;;5031564;28;20966;-69
2021/08/10 05:09:55;;;;;;;6.03;4.40;;;15.20;99.90;;;;;;5031030;28;20491;-69
2021/08/10 05:12:22;;;;;;;6.97;4.50;;;15.20;99.90;;;;;;5032044;28;20829;-69
2021/08/10 05:14:49;;;;;;;6.70;5.00;;;15.30;99.90;;;;;;5031252;28;20528;-69
2021/08/10 05:17:16;;;;;;;6.73;5.40;;;15.40;99.90;;;;;;5031842;28;20449;-69
2021/08/10 05:19:43;;;;;;;6.27;4.50;;;15.50;99.90;;;;;;5030655;28;20519;-69
2021/08/10 05:22:10;;;;;;;6.40;4.50;;;15.50;99.90;;;;;;5031271;28;20533;-68
2021/08/10 05:24:37;;;;;;;7.27;4.20;;;15.50;99.90;;;;;;5031355;28;20457;-69
2021/08/10 05:27:05;;;;;;;5.40;4.23;;;15.60;99.90;;;;;;5031532;28;20445;-70
2021/08/10 05:29:32;;;;;;;6.03;4.60;;;15.70;99.90;;;;;;5030373;28;20492;-68
2021/08/10 05:31:59;;;;;;;5.40;4.47;;;15.70;99.90;;;;;;5031615;28;20449;-69
2021/08/10 05:34:26;;;;;;;7.70;4.93;;;15.80;99.90;;;;;;5030631;28;20455;-69
2021/08/10 05:36:52;;;;;;;5.60;4.67;;;15.90;99.90;;;;;;5031420;28;20571;-68
2021/08/10 05:39:19;;;;;;;10.47;5.70;;;16.00;99.90;;;;;;5030224;28;20837;-69
2021/08/10 05:41:46;;;;;;;5.33;4.60;;;16.10;99.90;;;;;;5031031;28;20449;-70
2021/08/10 05:44:15;;;;;;;8.07;4.70;;;16.30;99.90;;;;;;5031000;28;20540;-68
2021/08/10 05:46:42;;;;;;;5.90;4.43;;;16.40;99.90;;;;;;5031228;28;20449;-68
2021/08/10 05:49:09;;;;;;;6.13;5.00;;;16.40;99.90;;;;;;5029927;28;20484;-69
2021/08/10 05:51:36;;;;;;;6.27;4.40;;;16.50;99.90;;;;;;5031313;28;20440;-70
2021/08/10 05:54:03;;;;;;;5.43;4.10;;;16.60;99.90;;;;;;5031054;28;20445;-70
2021/08/10 05:56:30;;;;;;;5.87;4.33;;;16.80;99.90;;;;;;5031090;28;20451;-70
2021/08/10 05:58:57;;;;;;;8.03;4.67;;;17.00;99.90;;;;;;5029624;28;20441;-70
2021/08/10 06:01:25;;;;;;;6.70;4.33;;;17.00;99.90;;;;;;5030964;28;20475;-70
2021/08/10 06:03:52;;;;;;;5.40;4.13;;;17.10;99.90;;;;;;5031262;28;20819;-69
2021/08/10 06:06:19;;;;;;;8.50;4.60;;;17.00;99.90;;;;;;5030813;28;20523;-69
2021/08/10 06:08:46;;;;;;;7.10;4.40;;;16.90;99.90;;;;;;5030971;28;20453;-69
2021/08/10 06:11:13;;;;;;;5.70;4.27;;;16.90;99.90;;;;;;5029847;28;20473;-69
2021/08/10 06:13:39;;;;;;;6.80;4.00;;;17.00;99.90;;;;;;5030813;28;20457;-68
2021/08/10 06:16:06;;;;;;;6.47;4.57;;;17.20;99.90;;;;;;5030407;28;20544;-69
2021/08/10 06:18:34;;;;;;;7.97;4.97;;;17.40;99.90;;;;;;5030774;28;20540;-68
2021/08/10 06:21:09;;;;;;;7.87;4.50;;;17.50;99.90;;;;;;5127319;27;21116;-70
2021/08/10 06:23:36;;;;;;;11.53;5.80;;;17.60;99.90;;;;;;5107917;28;20441;-70
2021/08/10 06:26:03;;;;;;;11.60;5.00;;;17.80;99.90;;;;;;5107202;28;20435;-70
2021/08/10 06:28:30;;;;;;;9.50;5.80;;;17.90;99.90;;;;;;5107302;28;20950;-70
2021/08/10 06:30:57;;;;;;;6.90;5.10;;;18.10;99.90;;;;;;5106795;28;20548;-69
2021/08/10 06:33:24;;;;;;;12.93;5.43;;;18.00;99.90;;;;;;5107404;28;20441;-70
2021/08/10 06:35:51;;;;;;;10.70;5.60;;;18.00;99.90;;;;;;5107181;28;20460;-70
2021/08/10 06:38:19;;;;;;;9.60;4.33;;;18.10;99.90;;;;;;5107436;28;20447;-70
2021/08/10 06:40:46;;;;;;;8.50;5.43;;;18.40;99.90;;;;;;5105071;28;20575;-70
2021/08/10 06:43:13;;;;;;;6.40;5.23;;;18.60;99.90;;;;;;5106916;28;20958;-70
2021/08/10 06:45:41;;;;;;;6.67;4.97;;;18.90;99.90;;;;;;5106891;28;20437;-69
2021/08/10 06:48:08;;;;;;;12.63;5.40;;;19.10;99.90;;;;;;5107229;28;20550;-70
2021/08/10 06:50:35;;;;;;;6.90;4.50;;;19.20;99.90;;;;;;5106072;28;20453;-70
2021/08/10 06:53:02;;;;;;;5.83;4.70;;;19.40;99.90;;;;;;5106908;28;20537;-69
2021/08/10 06:55:30;;;;;;;7.90;4.70;;;19.50;99.90;;;;;;5106555;28;20451;-69
2021/08/10 06:57:57;;;;;;;9.17;5.10;;;19.60;99.90;;;;;;5107042;28;20460;-69
2021/08/10 07:00:24;;;;;;;8.53;5.13;;;19.80;99.90;;;;;;5105841;28;20983;-69
2021/08/10 07:02:51;;;;;;;6.30;4.57;;;19.90;99.90;;;;;;5106667;28;20532;-69
2021/08/10 07:05:18;;;;;;;10.63;4.70;;;20.10;99.90;;;;;;5106095;28;20441;-69
2021/08/10 07:07:45;;;;;;;8.97;5.10;;;20.30;99.90;;;;;;5106367;28;20449;-67
2021/08/10 07:10:12;;;;;;;6.30;4.90;;;20.50;99.90;;;;;;5105881;28;20496;-69
2021/08/10 07:12:40;;;;;;;7.90;4.63;;;20.60;99.90;;;;;;5106921;28;20528;-68
2021/08/10 07:15:08;;;;;;;7.00;4.37;;;20.70;99.90;;;;;;5106107;28;20452;-68
2021/08/10 07:17:35;;;;;;;8.73;4.50;;;20.80;99.90;;;;;;5106453;28;20448;-69
2021/08/10 07:20:02;;;;;;;5.87;3.87;;;20.70;99.90;;;;;;5116974;28;20505;-68
2021/08/10 07:22:29;;;;;;;5.03;4.43;;;20.90;99.90;;;;;;5126932;28;20471;-68
2021/08/10 07:24:55;;;;;;;4.90;3.70;;;20.90;99.90;;;;;;5126704;28;20734;-68
2021/08/10 07:27:22;;;;;;;4.73;3.27;;;20.80;99.90;;;;;;5126771;28;20451;-68
2021/08/10 07:29:50;;;;;;;8.43;3.43;;;20.70;99.90;;;;;;5125908;28;20492;-69
2021/08/10 07:32:17;;;;;;;4.77;2.93;;;20.80;99.90;;;;;;5114183;28;20441;-69
2021/08/10 07:34:44;;;;;;;4.97;3.10;;;20.70;99.90;;;;;;5112626;28;20467;-69
2021/08/10 07:37:11;;;;;;;9.20;4.33;;;20.80;99.90;;;;;;5112762;28;20981;-69
2021/08/10 07:39:38;;;;;;;5.87;3.50;;;20.70;99.90;;;;;;5112214;28;20473;-69
2021/08/10 07:42:05;;;;;;;4.50;3.63;;;20.70;99.90;;;;;;5112708;28;20445;-69
2021/08/10 07:44:32;;;;;;;7.97;3.60;;;20.80;99.90;;;;;;5112345;28;20445;-69
2021/08/10 07:47:02;;;;;;;5.63;3.53;;;21.00;99.90;;;;;;5112729;28;20498;-69
2021/08/10 07:49:29;;;;;;;5.63;3.50;;;20.90;99.90;;;;;;5111688;28;20466;-69
2021/08/10 07:51:56;;;;;;;3.33;2.90;;;21.20;99.90;;;;;;5112824;28;20830;-69
2021/08/10 07:54:23;;;;;;;6.77;3.63;;;21.30;99.90;;;;;;5112301;28;20626;-69
2021/08/10 07:56:50;;;;;;;4.43;3.20;;;21.60;99.90;;;;;;5112763;28;20883;-69
2021/08/10 07:59:16;;;;;;;7.97;4.07;;;21.70;99.90;;;;;;5111593;28;20465;-68
2021/08/10 08:01:43;;;;;;;6.97;3.90;;;21.90;99.90;;;;;;5112582;28;20447;-68
2021/08/10 08:04:11;;;;;;;6.47;3.30;;;22.00;99.90;;;;;;5112480;28;20203;-68
2021/08/10 08:06:38;;;;;;;4.63;3.10;;;21.90;99.90;;;;;;5112527;28;20947;-68
2021/08/10 08:09:05;;;;;;;6.20;3.20;;;21.80;99.90;;;;;;5111899;28;20899;-68
2021/08/10 08:11:32;;;;;;;10.10;3.70;;;22.10;99.90;;;;;;5112424;28;20441;-69
2021/08/10 08:13:59;;;;;;;5.57;3.53;;;22.50;99.90;;;;;;5112488;28;20540;-68
2021/08/10 08:16:26;;;;;;;8.37;3.50;;;22.80;99.90;;;;;;5112014;28;20453;-68
2021/08/10 08:18:52;;;;;;;8.33;3.83;;;23.10;99.90;;;;;;5112119;28;20433;-69
2021/08/10 08:21:21;;;;;;;7.97;3.60;;;23.30;99.90;;;;;;5112034;28;20504;-70
2021/08/10 08:23:47;;;;;;;7.50;3.97;;;23.40;99.90;;;;;;5112348;28;20481;-69
2021/08/10 08:26:14;;;;;;;5.80;3.37;;;23.40;99.90;;;;;;5113587;28;20484;-70
2021/08/10 08:28:41;;;;;;;3.70;2.70;;;23.50;99.90;;;;;;5113861;28;20679;-69
2021/08/10 08:31:08;;;;;;;6.83;3.27;;;23.60;99.90;;;;;;5115106;28;21061;-68
2021/08/10 08:33:35;;;;;;;6.40;3.50;;;23.70;99.90;;;;;;5114132;28;20437;-69
2021/08/10 08:36:02;;;;;;;5.47;3.33;;;23.90;99.90;;;;;;5112199;28;20939;-69
2021/08/10 08:38:30;;;;;;;6.00;3.47;;;24.20;99.90;;;;;;5112655;28;20447;-69
2021/08/10 08:40:57;;;;;;;6.20;3.70;;;24.00;99.90;;;;;;5111063;28;20595;-68
2021/08/10 08:43:25;;;;;;;6.47;3.53;;;24.20;99.90;;;;;;5110709;28;20894;-68
2021/08/10 08:45:52;;;;;;;5.60;3.80;;;24.50;99.90;;;;;;5111085;28;20449;-69
2021/08/10 08:48:20;;;;;;;5.10;2.80;;;24.60;99.90;;;;;;5111710;28;20441;-68
2021/08/10 08:50:49;;;;;;;6.97;3.70;;;24.50;99.90;;;;;;5110882;28;20469;-69
2021/08/10 08:53:17;;;;;;;6.00;3.40;;;24.50;99.90;;;;;;5111892;28;20543;-70
2021/08/10 08:55:46;;;;;;;6.50;4.27;;;24.50;99.90;;;;;;5111180;28;20437;-69
2021/08/10 08:58:14;;;;;;;5.23;3.50;;;24.60;99.90;;;;;;5111302;27;20804;-70
2021/08/10 09:00:41;;;;;;;4.63;3.70;;;24.80;99.90;;;;;;5110452;28;20583;-68
2021/08/10 09:03:08;;;;;;;7.20;3.90;;;24.80;99.90;;;;;;5111323;28;20438;-69
2021/08/10 09:05:39;;;;;;;5.50;3.00;;;24.90;99.90;;;;;;5111082;28;21028;-69
2021/08/10 09:08:28;;;;;;;6.03;3.30;;;24.90;99.90;;;;;;5111318;28;20507;-69
2021/08/10 09:10:58;;;;;;;5.57;3.57;;;25.10;99.90;;;;;;5110264;28;20465;-70
2021/08/10 09:13:25;;;;;;;5.80;3.13;;;25.00;99.90;;;;;;5111337;28;20798;-70
2021/08/10 09:15:52;;;;;;;8.40;3.60;;;25.00;99.90;;;;;;5110818;28;20524;-70
2021/08/10 09:18:21;;;;;;;7.10;3.50;;;24.80;99.90;;;;;;5111036;28;20536;-70
2021/08/10 09:21:04;;;;;;;6.10;3.40;;;25.00;99.90;;;;;;5109801;28;21111;-70
2021/08/10 09:23:46;;;;;;;5.43;3.60;;;25.20;99.90;;;;;;5111122;28;20455;-69
2021/08/10 09:26:16;;;;;;;6.50;3.00;;;25.10;99.90;;;;;;5110743;28;20468;-69
2021/08/10 09:28:44;;;;;;;4.43;3.40;;;25.20;99.90;;;;;;5110579;28;20938;-69
2021/08/10 09:31:38;;;;;;;7.60;3.13;;;25.20;99.90;;;;;;5109707;28;20471;-69
2021/08/10 09:34:07;;;;;;;6.40;3.50;;;25.10;99.90;;;;;;5110861;28;20931;-69
2021/08/10 09:36:34;;;;;;;7.40;3.53;;;25.10;99.90;;;;;;5110383;28;20445;-69
2021/08/10 09:39:02;;;;;;;4.07;3.10;;;25.40;99.90;;;;;;5110295;28;20484;-70
2021/08/10 09:41:30;;;;;;;7.00;3.40;;;25.70;99.90;;;;;;5110687;28;20944;-69
2021/08/10 09:44:11;;;;;;;7.43;3.20;;;26.10;99.90;;;;;;5110613;28;20449;-70
2021/08/10 09:46:44;;;;;;;5.43;3.60;;;26.30;99.90;;;;;;5110582;28;20453;-69
2021/08/10 09:49:12;;;;;;;8.53;4.13;;;26.60;99.90;;;;;;5109864;28;20934;-70
2021/08/10 09:51:42;;;;;;;4.63;2.90;;;27.00;99.90;;;;;;5110855;28;20532;-70
2021/08/10 09:54:11;;;;;;;5.03;2.93;;;27.30;99.90;;;;;;5110198;28;20433;-68
2021/08/10 09:56:47;;;;;;;7.10;3.83;;;27.50;99.90;;;;;;5110258;28;20437;-68
2021/08/10 09:59:15;;;;;;;6.83;3.60;;;27.60;99.90;;;;;;5109690;28;20507;-68
2021/08/10 10:01:44;;;;;;;5.77;3.30;;;27.40;99.90;;;;;;5110104;28;20481;-68
2021/08/10 10:04:22;;;;;;;6.77;2.83;;;27.70;99.90;;;;;;5110414;28;20444;-68
2021/08/10 10:06:51;;;;;;;6.30;3.10;;;27.70;99.90;;;;;;5110219;28;20472;-68
2021/08/10 10:09:19;;;;;;;5.50;3.10;;;27.90;99.90;;;;;;5109197;28;20465;-68
2021/08/10 10:11:49;;;;;;;3.73;2.60;;;28.20;99.90;;;;;;5110078;28;20437;-69
2021/08/10 10:14:17;;;;;;;5.00;3.10;;;28.10;99.90;;;;;;5109858;28;20536;-68
2021/08/10 10:16:48;;;;;;;5.50;3.30;;;28.10;99.90;;;;;;5110147;28;20455;-68
2021/08/10 10:19:16;;;;;;;5.00;3.30;;;27.90;98.70;;;;;;5109211;28;20488;-68
2021/08/10 10:21:46;;;;;;;4.20;2.90;;;28.20;97.50;;;;;;5109834;28;20481;-68
2021/08/10 10:24:14;;;;;;;4.23;2.83;;;28.30;98.40;;;;;;5110360;28;20535;-68
2021/08/10 10:26:43;;;;;;;3.70;3.10;;;28.50;98.90;;;;;;5110490;28;20531;-68
2021/08/10 10:29:12;;;;;;;7.83;4.60;;;28.50;99.70;;;;;;5109522;28;20532;-68
2021/08/10 10:31:40;;;;;;;5.10;3.63;;;28.60;97.80;;;;;;5111469;28;20447;-69
2021/08/10 10:34:07;;;;;;;5.67;3.20;;;28.30;98.50;;;;;;5111851;28;20527;-69
2021/08/10 10:36:35;;;;;;;6.10;3.97;;;28.30;99.90;;;;;;5111338;28;20449;-69
2021/08/10 10:39:03;;;;;;;5.10;3.30;;;27.90;96.30;;;;;;5111034;28;20528;-68
2021/08/10 10:41:32;;;;;;;3.90;2.70;;;27.30;97.90;;;;;;5110227;28;20571;-69
2021/08/10 10:43:59;;;;;;;5.93;2.87;;;27.20;99.00;;;;;;5109822;28;20449;-69
2021/08/10 10:46:31;;;;;;;4.67;2.87;;;27.50;97.20;;;;;;5109589;28;20453;-69
2021/08/10 10:48:58;;;;;;;5.60;3.00;;;27.90;96.60;;;;;;5109367;28;20521;-68
2021/08/10 10:51:29;;;;;;;5.90;3.50;;;27.90;97.70;;;;;;5109529;28;20532;-69
2021/08/10 10:54:25;;;;;;;7.43;3.10;;;28.20;96.70;;;;;;5109902;28;20447;-70
2021/08/10 10:56:53;;;;;;;6.80;2.73;;;28.10;98.50;;;;;;5109663;28;20457;-70
2021/08/10 10:59:42;;;;;;;5.10;3.20;;;28.40;97.70;;;;;;5108915;28;20552;-69
2021/08/10 11:02:23;;;;;;;8.37;2.77;;;28.40;96.50;;;;;;5104013;28;20481;-69
2021/08/10 11:05:26;;;;;;;5.10;2.70;;;28.20;97.10;;;;;;5109627;28;20441;-69
2021/08/10 11:07:54;;;;;;;4.90;2.77;;;27.90;96.40;;;;;;5113205;28;20445;-70
2021/08/10 11:10:42;;;;;;;6.13;3.13;;;27.70;96.80;;;;;;5112547;28;21036;-69
2021/08/10 11:13:35;;;;;;;6.63;2.70;;;27.50;97.90;;;;;;5113498;28;20470;-71
2021/08/10 11:16:02;;;;;;;6.73;3.17;;;27.60;97.70;;;;;;5113296;28;20818;-69
2021/08/10 11:18:33;;;;;;;3.93;2.33;;;27.60;99.30;;;;;;5113489;28;20468;-70
2021/08/10 11:21:25;;;;;;;7.10;3.47;;;27.90;98.30;;;;;;5112242;28;20576;-69
2021/08/10 11:23:54;;;;;;;4.57;2.63;;;28.60;94.90;;;;;;5113131;28;20469;-68
2021/08/10 11:26:39;;;;;;;5.70;2.73;;;29.00;94.70;;;;;;5112672;28;20590;-69
2021/08/10 11:29:11;;;;;;;8.00;3.10;;;29.20;94.00;;;;;;5112238;28;20441;-69
2021/08/10 11:31:52;;;;;;;10.70;3.67;;;28.90;94.30;;;;;;5113024;28;20460;-70
2021/08/10 11:34:37;;;;;;;3.30;2.00;;;29.40;94.50;;;;;;5112657;28;20440;-69
2021/08/10 11:37:25;;;;;;;3.20;2.10;;;29.00;92.30;;;;;;5113229;28;20476;-70
2021/08/10 11:40:12;;;;;;;3.57;2.20;;;29.00;94.70;;;;;;5112055;28;20500;-69
2021/08/10 11:42:41;;;;;;;3.43;2.27;;;28.90;93.00;;;;;;5112647;28;20473;-69
2021/08/10 11:45:09;;;;;;;3.83;2.20;;;29.10;94.30;;;;;;5112393;28;20544;-69
2021/08/10 11:47:36;;;;;;;5.37;2.40;;;29.10;93.90;;;;;;5112653;28;20452;-69
2021/08/10 11:50:06;;;;;;;4.67;2.40;;;28.80;94.30;;;;;;5111933;28;20463;-69
2021/08/10 11:52:44;;;;;;;3.50;2.30;;;28.40;94.10;;;;;;5112898;28;20497;-69
2021/08/10 11:55:11;;;;;;;4.60;2.43;;;28.10;93.80;;;;;;5112315;28;20453;-69
2021/08/10 11:57:53;;;;;;;4.00;3.07;;;28.40;93.20;;;;;;5112803;28;20540;-70
2021/08/10 12:00:21;;;;;;;3.80;2.80;;;28.60;93.60;;;;;;5111951;28;20465;-68
2021/08/10 12:02:48;;;;;;;5.33;2.90;;;28.60;94.60;;;;;;5112381;28;20477;-69
2021/08/10 12:05:17;;;;;;;4.87;2.97;;;28.70;94.70;;;;;;5112093;28;20480;-69
2021/08/10 12:07:52;;;;;;;3.83;2.27;;;28.90;94.70;;;;;;5112121;28;20528;-69
2021/08/10 12:10:32;;;;;;;3.97;2.30;;;29.10;95.90;;;;;;5111568;28;20547;-70
2021/08/10 12:13:10;;;;;;;4.10;2.60;;;29.20;94.20;;;;;;5112675;28;20482;-69
2021/08/10 12:15:44;;;;;;;3.93;2.57;;;29.60;93.10;;;;;;5111926;28;20962;-69
2021/08/10 12:18:12;;;;;;;3.90;2.20;;;29.80;92.80;;;;;;5112188;28;20441;-69
2021/08/10 12:20:40;;;;;;;4.10;2.30;;;29.80;91.60;;;;;;5111783;28;20484;-69
2021/08/10 12:23:10;;;;;;;3.53;2.53;;;29.90;92.70;;;;;;5112978;28;20465;-69
2021/08/10 12:25:38;;;;;;;4.40;2.40;;;30.20;91.00;;;;;;5115276;28;20481;-69
2021/08/10 12:28:07;;;;;;;3.63;2.23;;;30.80;90.90;;;;;;5113196;28;20441;-69
2021/08/10 12:30:34;;;;;;;4.10;2.40;;;30.80;90.80;;;;;;5111400;28;20856;-69
2021/08/10 12:33:20;;;;;;;4.10;2.60;;;30.60;91.50;;;;;;5112470;28;20881;-67
2021/08/10 12:36:03;;;;;;;3.93;2.60;;;29.90;90.50;;;;;;5113155;28;20445;-69
2021/08/10 12:38:30;;;;;;;4.97;3.07;;;29.20;92.00;;;;;;5113203;28;20532;-68
2021/08/10 12:40:57;;;;;;;8.40;2.50;;;28.50;92.40;;;;;;5111625;28;20471;-69
2021/08/10 12:43:25;;;;;;;3.83;2.70;;;28.40;92.80;;;;;;5112252;28;20446;-70
2021/08/10 12:45:53;;;;;;;4.90;2.37;;;28.80;92.90;;;;;;5111926;28;20530;-69
2021/08/10 12:48:28;;;;;;;3.73;2.17;;;29.60;91.80;;;;;;5112555;28;21047;-69
2021/08/10 12:50:56;;;;;;;7.90;3.43;;;30.10;94.10;;;;;;5111790;28;20521;-70
2021/08/10 12:53:29;;;;;;;4.03;2.53;;;30.30;90.50;;;;;;5112485;28;20532;-70
2021/08/10 12:55:58;;;;;;;4.10;2.40;;;29.90;90.90;;;;;;5112551;28;20544;-70
2021/08/10 12:58:25;;;;;;;5.37;2.70;;;29.50;90.90;;;;;;5111557;28;20446;-70